Login to view products.
 
Monday, December 06, 2021 (12:24 UTC) 12
Al Bateen Executive Airport
ICAO: OMAD
IATA: AZI
  • METAR OMAD 061200Z 27006KT 240V310 CAVOK 26/14 Q1016 NOSIG=
  • TAF OMAD 061100Z 0612/0718 30008KT 8000 NSC BECMG 0617/0618 VRB02KT PROB30 0623/0704 4000 HZ BECMG 0708/0710 31010KT=

2
Last Updated:
Wind Dir/Speed:
Temperature:
Rel. Humidity:
Pressure:
Visibility: